Powell, Texas
Current Conditions -  °F | °C
As of 8:53 AM on Friday 31 Oct 2014 (Local Time) from KCRS Reporting Station
Clear Clear  
Wind Chill: 14°   Ceiling: Unl
Heat Index: 14°   Visibility: 10mi
Dew Point:   Wind: 13mph
Humidity: 57%   Direction: 350°N
Pressure: 30.26"   Gusts: NA
Location:  32.12°N, 96.32°W
Report Text: KCRS 311353Z AUTO 35011KT 10SM CLR 14/06 A3026 RMK AO2 SLP246 T01390056
Loading
Personal Weather Stations






























Interactive Weather Map
Tropical Storm Tracking
New forecast layout! Learn more

10-Day Weather Forecast

Advertisements
Track Severe Weather on mobile